createdAt,value
2018-06-11T00:01:47.245Z,3.00
2018-06-11T00:04:17.387Z,3.87
2018-06-11T00:06:47.659Z,3.30
2018-06-11T00:09:17.656Z,3.80
2018-06-11T00:11:47.721Z,3.87
2018-06-11T00:14:17.975Z,4.10
2018-06-11T00:16:48.030Z,4.20
2018-06-11T00:19:18.240Z,4.90
2018-06-11T00:21:48.699Z,4.40
2018-06-11T00:24:19.058Z,5.23
2018-06-11T00:26:49.266Z,5.10
2018-06-11T00:29:19.490Z,5.07
2018-06-11T00:31:49.724Z,4.73
2018-06-11T00:34:19.675Z,4.30
2018-06-11T00:36:50.019Z,6.23
2018-06-11T00:39:19.968Z,7.30
2018-06-11T00:41:50.436Z,7.27
2018-06-11T00:44:20.701Z,10.17
2018-06-11T00:46:50.888Z,8.90
2018-06-11T00:49:21.168Z,8.50
2018-06-11T00:51:51.440Z,8.10
2018-06-11T00:54:22.041Z,7.93
2018-06-11T00:56:52.280Z,8.47
2018-06-11T00:59:22.451Z,7.67
2018-06-11T01:01:52.758Z,7.53
2018-06-11T01:04:22.979Z,7.43
2018-06-11T01:06:53.357Z,6.83
2018-06-11T01:09:23.640Z,7.17
2018-06-11T01:11:53.736Z,6.73
2018-06-11T01:14:23.917Z,5.77
2018-06-11T01:16:53.880Z,5.90
2018-06-11T01:19:23.818Z,6.33
2018-06-11T01:21:53.829Z,6.70
2018-06-11T01:24:23.961Z,6.20
2018-06-11T01:26:54.018Z,5.90
2018-06-11T01:29:23.921Z,5.40
2018-06-11T01:31:53.943Z,5.30
2018-06-11T01:34:23.840Z,5.13
2018-06-11T01:36:54.039Z,5.87
2018-06-11T01:39:24.941Z,5.97
2018-06-11T01:41:54.912Z,5.17
2018-06-11T01:44:24.892Z,6.13
2018-06-11T01:46:55.016Z,6.10
2018-06-11T01:49:25.363Z,5.73
2018-06-11T01:51:55.260Z,5.50
2018-06-11T01:54:25.693Z,5.97
2018-06-11T01:56:55.753Z,5.37
2018-06-11T01:59:25.751Z,5.47
2018-06-11T02:01:55.865Z,5.90
2018-06-11T02:04:26.192Z,5.90
2018-06-11T02:06:56.570Z,5.80
2018-06-11T02:09:26.634Z,5.83
2018-06-11T02:11:57.141Z,6.00
2018-06-11T02:14:27.248Z,6.20
2018-06-11T02:16:57.660Z,5.80
2018-06-11T02:19:27.761Z,5.40
2018-06-11T02:21:57.792Z,5.70
2018-06-11T02:24:28.240Z,5.50
2018-06-11T02:26:58.483Z,5.43
2018-06-11T02:29:28.391Z,5.27
2018-06-11T02:31:58.505Z,5.10
2018-06-11T02:34:28.355Z,4.83
2018-06-11T02:36:58.793Z,5.00
2018-06-11T02:39:28.799Z,5.47
2018-06-11T02:41:59.195Z,5.10
2018-06-11T02:44:29.069Z,5.13
2018-06-11T02:46:59.093Z,4.70
2018-06-11T02:49:29.028Z,4.50
2018-06-11T02:51:58.940Z,4.40
2018-06-11T02:54:29.139Z,4.40
2018-06-11T02:56:59.555Z,4.53
2018-06-11T02:59:29.810Z,5.13
2018-06-11T03:02:00.057Z,4.57
2018-06-11T03:04:30.189Z,5.03
2018-06-11T03:07:00.487Z,5.33
2018-06-11T03:09:30.771Z,5.27
2018-06-11T03:12:00.967Z,4.97
2018-06-11T03:14:31.244Z,4.57
2018-06-11T03:17:01.183Z,4.80
2018-06-11T03:19:31.148Z,4.77
2018-06-11T03:22:01.213Z,5.00
2018-06-11T03:24:31.157Z,5.20
2018-06-11T03:27:01.188Z,4.43
2018-06-11T03:29:31.133Z,3.90
2018-06-11T03:32:01.021Z,4.23
2018-06-11T03:34:32.021Z,3.30
2018-06-11T03:37:02.487Z,4.20
2018-06-11T03:39:32.790Z,3.87
2018-06-11T03:42:03.170Z,4.67
2018-06-11T03:44:33.578Z,3.80
2018-06-11T03:47:03.545Z,3.87
2018-06-11T03:49:33.694Z,3.40
2018-06-11T03:52:04.147Z,3.33
2018-06-11T03:54:34.720Z,3.77
2018-06-11T03:57:05.051Z,3.83
2018-06-11T03:59:35.036Z,6.23
2018-06-11T04:02:05.157Z,4.77
2018-06-11T04:04:35.127Z,5.03
2018-06-11T04:07:05.376Z,4.57
2018-06-11T04:09:35.319Z,4.53
2018-06-11T04:12:05.365Z,4.67
2018-06-11T04:14:35.201Z,4.50
2018-06-11T04:17:06.136Z,3.90
2018-06-11T04:19:36.300Z,3.60
2018-06-11T04:22:06.765Z,3.60
2018-06-11T04:24:36.675Z,3.10
2018-06-11T04:27:06.718Z,3.17
2018-06-11T04:29:36.680Z,3.17
2018-06-11T04:32:06.751Z,3.43
2018-06-11T04:34:36.709Z,3.80
2018-06-11T04:37:06.677Z,3.87
2018-06-11T04:39:37.162Z,4.20
2018-06-11T04:42:07.192Z,4.23
2018-06-11T04:44:37.525Z,3.67
2018-06-11T04:47:07.760Z,3.50
2018-06-11T04:49:38.880Z,3.40
2018-06-11T04:52:09.024Z,3.60
2018-06-11T04:54:39.181Z,3.50
2018-06-11T04:57:09.262Z,4.03
2018-06-11T04:59:39.488Z,3.47
2018-06-11T05:02:09.852Z,3.70
2018-06-11T05:04:39.810Z,3.83
2018-06-11T05:07:09.980Z,4.43
2018-06-11T05:09:40.383Z,4.00
2018-06-11T05:12:10.288Z,4.07
2018-06-11T05:14:40.146Z,3.87
2018-06-11T05:17:10.700Z,3.77
2018-06-11T05:19:40.727Z,3.63
2018-06-11T05:22:10.970Z,4.00
2018-06-11T05:24:41.023Z,4.03
2018-06-11T05:27:11.086Z,4.00
2018-06-11T05:29:41.335Z,4.87
2018-06-11T05:32:11.834Z,3.67
2018-06-11T05:34:42.175Z,4.13
2018-06-11T05:37:12.161Z,4.83
2018-06-11T05:39:42.210Z,4.90
2018-06-11T05:42:12.525Z,3.53
2018-06-11T05:44:42.589Z,4.30
2018-06-11T05:47:12.948Z,4.40
2018-06-11T05:49:42.816Z,5.20
2018-06-11T05:52:13.238Z,4.27
2018-06-11T05:54:43.128Z,4.70
2018-06-11T05:57:13.071Z,4.23
2018-06-11T05:59:43.344Z,5.63
2018-06-11T06:02:13.290Z,6.37
2018-06-11T06:04:43.567Z,4.77
2018-06-11T06:07:13.495Z,4.80
2018-06-11T06:09:43.465Z,5.90
2018-06-11T06:12:13.567Z,4.80
2018-06-11T06:14:43.887Z,4.70
2018-06-11T06:17:13.794Z,4.40
2018-06-11T06:19:44.209Z,5.03
2018-06-11T06:22:14.572Z,3.40
2018-06-11T06:24:44.908Z,4.27
2018-06-11T06:27:14.894Z,4.13
2018-06-11T06:29:44.928Z,4.30
2018-06-11T06:32:15.123Z,3.73
2018-06-11T06:34:45.337Z,3.90
2018-06-11T06:37:15.357Z,3.63
2018-06-11T06:39:45.325Z,3.83
2018-06-11T06:42:15.480Z,3.40
2018-06-11T06:44:45.664Z,3.50
2018-06-11T06:47:15.787Z,3.90
2018-06-11T06:49:46.108Z,3.87
2018-06-11T06:52:16.611Z,3.57
2018-06-11T06:54:46.676Z,3.10
2018-06-11T06:57:16.717Z,3.47
2018-06-11T06:59:46.606Z,3.90
2018-06-11T07:02:16.951Z,3.67
2018-06-11T07:04:47.698Z,3.40
2018-06-11T07:07:18.015Z,3.13
2018-06-11T07:09:48.235Z,3.00
2018-06-11T07:12:18.323Z,2.80
2018-06-11T07:14:48.551Z,2.73
2018-06-11T07:17:18.671Z,2.60
2018-06-11T07:19:48.703Z,2.73
2018-06-11T07:22:18.700Z,2.70
2018-06-11T07:24:49.121Z,2.67
2018-06-11T07:27:19.339Z,2.40
2018-06-11T07:29:49.464Z,2.20
2018-06-11T07:32:19.474Z,2.30
2018-06-11T07:34:49.795Z,3.43
2018-06-11T07:37:20.828Z,2.40
2018-06-11T07:39:51.094Z,2.00
2018-06-11T07:42:21.461Z,2.17
2018-06-11T07:44:51.730Z,2.80
2018-06-11T07:47:22.081Z,2.87
2018-06-11T07:49:52.229Z,2.53
2018-06-11T07:52:22.703Z,2.77
2018-06-11T07:54:52.640Z,2.30
2018-06-11T07:57:22.635Z,2.40
2018-06-11T07:59:52.938Z,2.43
2018-06-11T08:02:22.899Z,2.50
2018-06-11T08:04:53.540Z,2.60
2018-06-11T08:07:23.600Z,2.27
2018-06-11T08:09:53.505Z,2.83
2018-06-11T08:12:23.891Z,2.40
2018-06-11T08:14:54.089Z,3.33
2018-06-11T08:17:24.337Z,2.53
2018-06-11T08:19:54.609Z,2.63
2018-06-11T08:22:25.034Z,2.20
2018-06-11T08:24:55.496Z,2.50
2018-06-11T08:27:25.816Z,2.23
2018-06-11T08:29:56.163Z,2.67
2018-06-11T08:32:26.576Z,2.30
2018-06-11T08:34:56.455Z,2.13
2018-06-11T08:37:26.928Z,2.40
2018-06-11T08:39:56.912Z,2.60
2018-06-11T08:42:27.297Z,4.00
2018-06-11T08:44:57.449Z,2.50
2018-06-11T08:47:27.400Z,2.10
2018-06-11T08:49:57.521Z,2.47
2018-06-11T08:52:27.916Z,2.53
2018-06-11T08:54:58.288Z,2.20
2018-06-11T08:57:28.253Z,3.33
2018-06-11T08:59:58.193Z,2.60
2018-06-11T09:02:28.310Z,2.40
2018-06-11T09:04:58.621Z,2.67
2018-06-11T09:07:28.877Z,2.70
2018-06-11T09:09:59.193Z,2.30
2018-06-11T09:12:29.194Z,2.33
2018-06-11T09:14:59.290Z,2.63
2018-06-11T09:17:29.132Z,1.97
2018-06-11T09:19:59.165Z,2.20
2018-06-11T09:22:29.779Z,2.10
2018-06-11T09:25:00.155Z,2.60
2018-06-11T09:27:30.502Z,2.00
2018-06-11T09:30:00.619Z,2.20
2018-06-11T09:32:30.513Z,2.23
2018-06-11T09:35:00.758Z,2.37
2018-06-11T09:37:30.797Z,2.37
2018-06-11T09:40:01.044Z,1.93
2018-06-11T09:42:30.955Z,2.23
2018-06-11T09:45:17.167Z,2.00
2018-06-11T09:47:49.955Z,2.10
2018-06-11T09:50:20.126Z,1.97
2018-06-11T09:52:50.458Z,2.20
2018-06-11T09:55:20.801Z,2.47
2018-06-11T09:57:51.141Z,2.37
2018-06-11T10:00:26.456Z,2.00
2018-06-11T10:02:56.527Z,2.20
2018-06-11T10:05:26.592Z,2.30
2018-06-11T10:07:56.569Z,2.27
2018-06-11T10:10:26.480Z,1.90
2018-06-11T10:12:56.819Z,1.70
2018-06-11T10:15:27.230Z,2.00
2018-06-11T10:17:57.740Z,1.90
2018-06-11T10:20:28.205Z,2.00
2018-06-11T10:22:58.222Z,2.00
2018-06-11T10:25:28.601Z,2.20
2018-06-11T10:27:59.022Z,2.60
2018-06-11T10:30:29.280Z,2.70
2018-06-11T10:32:59.518Z,1.97
2018-06-11T10:35:29.799Z,3.10
2018-06-11T10:38:00.265Z,2.27
2018-06-11T10:40:30.300Z,2.07
2018-06-11T10:43:00.204Z,2.27
2018-06-11T10:45:30.164Z,2.00
2018-06-11T10:48:00.464Z,2.70
2018-06-11T10:50:30.450Z,2.47
2018-06-11T10:53:01.049Z,2.10
2018-06-11T10:55:31.157Z,2.53
2018-06-11T10:58:01.499Z,2.20
2018-06-11T11:00:31.695Z,1.93
2018-06-11T11:03:01.925Z,2.30
2018-06-11T11:05:31.952Z,2.50
2018-06-11T11:08:02.221Z,2.67
2018-06-11T11:10:32.341Z,2.83
2018-06-11T11:13:02.652Z,2.80
2018-06-11T11:15:32.771Z,2.90
2018-06-11T11:18:03.224Z,3.00
2018-06-11T11:20:33.776Z,3.10
2018-06-11T11:23:03.985Z,2.90
2018-06-11T11:25:33.892Z,2.47
2018-06-11T11:28:04.094Z,2.93
2018-06-11T11:30:34.376Z,2.80
2018-06-11T11:33:04.508Z,2.90
2018-06-11T11:35:34.705Z,3.00
2018-06-11T11:38:04.849Z,2.77
2018-06-11T11:40:34.857Z,2.87
2018-06-11T11:43:04.892Z,3.20
2018-06-11T11:45:34.936Z,4.83
2018-06-11T11:48:05.371Z,2.87
2018-06-11T11:50:35.904Z,2.60
2018-06-11T11:53:06.274Z,2.90
2018-06-11T11:55:36.135Z,2.80
2018-06-11T11:58:06.858Z,2.63
2018-06-11T12:00:37.337Z,2.80
2018-06-11T12:03:07.660Z,2.60
2018-06-11T12:05:37.866Z,3.07
2018-06-11T12:08:08.082Z,2.63
2018-06-11T12:10:38.448Z,2.80
2018-06-11T12:13:08.396Z,2.97
2018-06-11T12:15:38.605Z,3.30
2018-06-11T12:18:08.996Z,3.20
2018-06-11T12:20:39.444Z,3.10
2018-06-11T12:23:09.384Z,2.60
2018-06-11T12:25:39.888Z,3.40
2018-06-11T12:28:10.087Z,3.40
2018-06-11T12:30:40.435Z,3.40
2018-06-11T12:33:10.392Z,3.13
2018-06-11T12:35:40.386Z,3.30
2018-06-11T12:38:10.335Z,3.63
2018-06-11T12:40:40.720Z,3.40
2018-06-11T12:43:10.950Z,3.27
2018-06-11T12:45:40.886Z,3.33
2018-06-11T12:48:10.755Z,3.23
2018-06-11T12:50:40.708Z,3.07
2018-06-11T12:53:10.606Z,3.20
2018-06-11T12:55:40.969Z,3.10
2018-06-11T12:58:11.583Z,3.43
2018-06-11T13:00:41.967Z,2.87
2018-06-11T13:03:12.485Z,3.23
2018-06-11T13:05:42.428Z,3.70
2018-06-11T13:08:12.527Z,3.10
2018-06-11T13:10:42.514Z,3.23
2018-06-11T13:13:12.695Z,3.00
2018-06-11T13:15:42.952Z,3.33
2018-06-11T13:18:12.909Z,2.97
2018-06-11T13:20:42.895Z,3.20
2018-06-11T13:23:12.924Z,3.00
2018-06-11T13:25:42.895Z,3.10
2018-06-11T13:28:12.778Z,3.17
2018-06-11T13:30:42.816Z,3.40
2018-06-11T13:33:12.836Z,3.10
2018-06-11T13:35:42.992Z,3.50
2018-06-11T13:38:13.292Z,3.50
2018-06-11T13:40:43.692Z,3.10
2018-06-11T13:43:13.569Z,3.67
2018-06-11T13:45:43.651Z,3.50
2018-06-11T13:48:13.885Z,3.33
2018-06-11T13:50:44.300Z,3.53
2018-06-11T13:53:14.553Z,2.83
2018-06-11T13:55:44.564Z,3.03
2018-06-11T13:58:15.041Z,2.90
2018-06-11T14:00:45.331Z,3.17
2018-06-11T14:03:15.653Z,4.13
2018-06-11T14:05:45.804Z,4.20
2018-06-11T14:08:16.144Z,3.53
2018-06-11T14:10:46.172Z,3.33
2018-06-11T14:13:16.292Z,3.60
2018-06-11T14:15:48.227Z,3.20
2018-06-11T14:18:19.079Z,3.27
2018-06-11T14:20:49.351Z,3.43
2018-06-11T14:23:19.813Z,3.07
2018-06-11T14:25:50.092Z,3.30
2018-06-11T14:28:20.723Z,3.00
2018-06-11T14:30:50.698Z,3.37
2018-06-11T14:33:20.830Z,3.33
2018-06-11T14:35:51.223Z,3.00
2018-06-11T14:38:21.178Z,3.40
2018-06-11T14:40:51.561Z,3.10
2018-06-11T14:43:21.507Z,3.20
2018-06-11T14:45:51.433Z,3.27
2018-06-11T14:48:21.509Z,3.00
2018-06-11T14:50:51.421Z,3.50
2018-06-11T14:53:22.141Z,3.23
2018-06-11T14:55:52.197Z,3.40
2018-06-11T14:58:22.576Z,3.27
2018-06-11T15:00:52.472Z,3.00
2018-06-11T15:03:22.508Z,3.10
2018-06-11T15:05:52.812Z,3.07
2018-06-11T15:08:23.257Z,3.23
2018-06-11T15:10:53.857Z,3.60
2018-06-11T15:13:24.128Z,3.30
2018-06-11T15:15:54.217Z,2.77
2018-06-11T15:18:24.933Z,3.00
2018-06-11T15:20:55.836Z,3.03
2018-06-11T15:23:26.196Z,3.13
2018-06-11T15:25:56.103Z,3.20
2018-06-11T15:28:26.080Z,3.43
2018-06-11T15:30:56.217Z,3.10
2018-06-11T15:33:26.188Z,2.97
2018-06-11T15:35:56.139Z,3.10
2018-06-11T15:38:26.045Z,2.80
2018-06-11T15:40:55.893Z,3.10
2018-06-11T15:43:25.854Z,2.97
2018-06-11T15:45:55.994Z,3.27
2018-06-11T15:48:25.880Z,2.87
2018-06-11T15:50:55.797Z,3.27
2018-06-11T15:53:25.983Z,3.17
2018-06-11T15:55:55.979Z,2.97
2018-06-11T15:58:26.175Z,2.97
2018-06-11T16:00:56.496Z,3.17
2018-06-11T16:03:26.806Z,3.40
2018-06-11T16:05:56.775Z,3.30
2018-06-11T16:08:26.701Z,3.20
2018-06-11T16:10:56.577Z,3.80
2018-06-11T16:13:26.845Z,3.37
2018-06-11T16:15:56.693Z,3.60
2018-06-11T16:18:26.696Z,2.97
2018-06-11T16:20:56.524Z,3.70
2018-06-11T16:23:26.646Z,3.33
2018-06-11T16:25:56.523Z,3.37
2018-06-11T16:28:26.608Z,3.70
2018-06-11T16:30:56.696Z,3.57
2018-06-11T16:33:27.145Z,4.33
2018-06-11T16:35:57.063Z,2.90
2018-06-11T16:38:27.273Z,3.20
2018-06-11T16:40:57.492Z,3.33
2018-06-11T16:43:32.959Z,4.27
2018-06-11T16:46:03.452Z,3.33
2018-06-11T16:48:33.342Z,3.50
2018-06-11T16:51:03.652Z,3.57
2018-06-11T16:53:34.335Z,3.90
2018-06-11T16:56:04.589Z,3.43
2018-06-11T16:58:34.968Z,3.80
2018-06-11T17:01:04.796Z,3.70
2018-06-11T17:03:35.116Z,3.80
2018-06-11T17:06:05.161Z,3.23
2018-06-11T17:08:35.537Z,3.93
2018-06-11T17:11:05.853Z,3.40
2018-06-11T17:13:36.140Z,3.87
2018-06-11T17:16:06.371Z,5.40
2018-06-11T17:18:36.552Z,5.10
2018-06-11T17:21:06.612Z,4.53
2018-06-11T17:23:36.645Z,4.40
2018-06-11T17:26:06.887Z,4.30
2018-06-11T17:28:36.913Z,4.40
2018-06-11T17:31:07.207Z,4.80
2018-06-11T17:33:37.369Z,4.50
2018-06-11T17:36:07.643Z,4.70
2018-06-11T17:38:37.880Z,5.73
2018-06-11T17:41:08.253Z,5.47
2018-06-11T17:43:38.291Z,5.80
2018-06-11T17:46:08.735Z,6.87
2018-06-11T17:48:38.983Z,6.00
2018-06-11T17:51:08.994Z,7.50
2018-06-11T17:53:39.208Z,6.90
2018-06-11T17:56:09.363Z,7.27
2018-06-11T17:58:39.557Z,6.83
2018-06-11T18:01:09.419Z,7.43
2018-06-11T18:03:39.596Z,7.33
2018-06-11T18:06:09.875Z,6.67
2018-06-11T18:08:39.839Z,7.73
2018-06-11T18:11:09.861Z,6.97
2018-06-11T18:13:40.713Z,8.30
2018-06-11T18:16:11.044Z,7.97
2018-06-11T18:18:41.839Z,7.33
2018-06-11T18:21:11.818Z,7.30
2018-06-11T18:23:41.854Z,6.97
2018-06-11T18:26:12.058Z,7.03
2018-06-11T18:28:42.508Z,7.20
2018-06-11T18:31:12.891Z,7.57
2018-06-11T18:33:42.817Z,7.73
2018-06-11T18:36:12.782Z,7.20
2018-06-11T18:38:42.940Z,8.00
2018-06-11T18:41:12.976Z,8.63
2018-06-11T18:43:43.177Z,8.50
2018-06-11T18:46:13.281Z,8.30
2018-06-11T18:48:43.450Z,8.30
2018-06-11T18:51:13.359Z,9.27
2018-06-11T18:53:43.268Z,9.33
2018-06-11T18:56:13.281Z,9.00
2018-06-11T18:58:43.648Z,8.87
2018-06-11T19:01:13.784Z,9.10
2018-06-11T19:03:43.989Z,9.13
2018-06-11T19:06:13.837Z,9.03
2018-06-11T19:08:44.210Z,9.20
2018-06-11T19:11:14.709Z,9.73
2018-06-11T19:13:45.053Z,9.63
2018-06-11T19:16:15.127Z,9.80
2018-06-11T19:18:44.983Z,7.90
2018-06-11T19:21:15.520Z,7.50
2018-06-11T19:23:45.548Z,8.17
2018-06-11T19:26:15.436Z,8.10
2018-06-11T19:28:45.466Z,7.83
2018-06-11T19:31:15.579Z,8.20
2018-06-11T19:33:45.835Z,8.00
2018-06-11T19:36:15.755Z,8.40
2018-06-11T19:38:46.142Z,9.13
2018-06-11T19:41:16.045Z,8.37
2018-06-11T19:43:46.340Z,8.47
2018-06-11T19:46:16.770Z,8.23
2018-06-11T19:48:47.521Z,8.67
2018-06-11T19:51:18.261Z,8.53
2018-06-11T19:53:48.261Z,11.80
2018-06-11T19:56:18.269Z,8.30
2018-06-11T19:58:49.325Z,8.33
2018-06-11T20:01:19.453Z,8.60
2018-06-11T20:03:50.723Z,9.10
2018-06-11T20:06:21.305Z,9.03
2018-06-11T20:08:51.317Z,9.40
2018-06-11T20:11:21.511Z,8.10
2018-06-11T20:13:51.696Z,8.87
2018-06-11T20:16:21.577Z,8.27
2018-06-11T20:18:51.784Z,9.60
2018-06-11T20:21:21.997Z,8.27
2018-06-11T20:23:52.163Z,10.57
2018-06-11T20:26:22.428Z,9.90
2018-06-11T20:28:52.334Z,8.63
2018-06-11T20:31:22.354Z,8.50
2018-06-11T20:33:52.533Z,8.47
2018-06-11T20:36:22.496Z,7.93
2018-06-11T20:38:52.877Z,8.50
2018-06-11T20:41:23.281Z,9.47
2018-06-11T20:43:53.187Z,9.03
2018-06-11T20:46:23.397Z,8.80
2018-06-11T20:48:53.792Z,9.10
2018-06-11T20:51:23.971Z,9.20
2018-06-11T20:53:53.997Z,10.07
2018-06-11T20:56:24.395Z,9.57
2018-06-11T20:58:54.808Z,9.87
2018-06-11T21:01:25.891Z,9.33
2018-06-11T21:03:56.048Z,10.10
2018-06-11T21:06:26.404Z,10.83
2018-06-11T21:08:56.438Z,11.00
2018-06-11T21:11:26.508Z,9.80
2018-06-11T21:13:56.888Z,8.57
2018-06-11T21:16:26.908Z,9.37
2018-06-11T21:18:57.113Z,18.50
2018-06-11T21:21:27.149Z,11.00
2018-06-11T21:23:57.539Z,12.37
2018-06-11T21:26:28.051Z,10.60
2018-06-11T21:28:58.024Z,9.33
2018-06-11T21:31:28.315Z,10.43
2018-06-11T21:33:58.244Z,12.07
2018-06-11T21:36:28.518Z,11.60
2018-06-11T21:38:58.491Z,12.60
2018-06-11T21:41:28.839Z,12.47
2018-06-11T21:43:59.253Z,11.87
2018-06-11T21:46:29.401Z,13.97
2018-06-11T21:48:59.583Z,14.33
2018-06-11T21:51:29.500Z,13.60
2018-06-11T21:53:59.511Z,13.97
2018-06-11T21:56:29.775Z,14.53
2018-06-11T21:58:59.980Z,21.50
2018-06-11T22:01:30.237Z,26.13
2018-06-11T22:04:00.891Z,29.73
2018-06-11T22:06:30.982Z,29.47
2018-06-11T22:09:01.461Z,27.47
2018-06-11T22:11:31.850Z,26.47
2018-06-11T22:14:02.135Z,27.60
2018-06-11T22:16:32.139Z,25.87
2018-06-11T22:19:02.160Z,25.93
2018-06-11T22:21:32.441Z,27.83
2018-06-11T22:24:02.694Z,28.37
2018-06-11T22:26:32.877Z,28.30
2018-06-11T22:29:03.331Z,27.77
2018-06-11T22:31:33.259Z,29.80
2018-06-11T22:34:03.560Z,27.57
2018-06-11T22:36:33.531Z,29.13
2018-06-11T22:39:03.846Z,27.73
2018-06-11T22:41:33.835Z,29.20
2018-06-11T22:44:03.968Z,29.47
2018-06-11T22:46:34.736Z,28.07
2018-06-11T22:49:04.911Z,29.00
2018-06-11T22:51:34.828Z,27.77
2018-06-11T22:54:05.283Z,25.43
2018-06-11T22:56:34.988Z,26.33
2018-06-11T22:59:05.184Z,28.33
2018-06-11T23:01:35.997Z,31.10
2018-06-11T23:04:06.089Z,31.90
2018-06-11T23:06:36.253Z,33.33
2018-06-11T23:09:08.308Z,33.17
2018-06-11T23:11:39.111Z,32.53
2018-06-11T23:14:10.026Z,32.33
2018-06-11T23:16:40.116Z,31.73
2018-06-11T23:19:10.505Z,29.30
2018-06-11T23:21:40.397Z,31.97
2018-06-11T23:24:10.564Z,31.43
2018-06-11T23:26:40.675Z,30.47
2018-06-11T23:29:10.875Z,31.67
2018-06-11T23:31:40.839Z,30.90
2018-06-11T23:34:11.273Z,29.97
2018-06-11T23:36:41.180Z,30.17
2018-06-11T23:39:11.832Z,30.23
2018-06-11T23:41:41.862Z,29.87
2018-06-11T23:44:12.067Z,30.53
2018-06-11T23:46:42.436Z,28.67
2018-06-11T23:49:12.695Z,26.80
2018-06-11T23:51:43.077Z,27.30
2018-06-11T23:54:13.232Z,27.53
2018-06-11T23:56:43.498Z,28.33
2018-06-11T23:59:13.490Z,26.63
